Terminal Aerodrome Forecast
Issued by NWS

Home | Current Version | Previous Version | Text Only | Print | Product List | Glossary On
Versions: 1 2 3 4 5 6 7 8 9 10 11 12 13 14 15 16 17 18 19
060
FTUS41 KGYX 232338
TAFHIE
TAF
KHIE 232338Z 2400/2424 22005KT P6SM SCT080 WS010/26030KT
     FM240300 VRB03KT P6SM SCT080
      TEMPO 2408/2412 3SM BR
     FM241200 00000KT 5SM BR BKN025
     FM241600 00000KT 3SM -SHRA BR OVC012=

USA.gov is the U.S. government's official web portal to all federal, state and local government web resources and services.